Time;durP1;ratioP1;P1;durP2;ratioP2;P2;SDS_P1;SDS_P2;PMS_P1;PMS_P2;Temp;Humidity;BMP_temperature;BMP_pressure;BME280_temperature;BME280_humidity;BME280_pressure;Samples;Min_cycle;Max_cycle;Signal;HPM_P1;HPM_P2
2024/04/03 00:01:09;;;;;;;3.28;1.25;;;;;;;;;;4917870;29;20035;-78
2024/04/03 00:03:54;;;;;;;2.38;1.42;;;;;;;;;;4920863;29;20028;-77
2024/04/03 00:06:40;;;;;;;3.97;1.92;;;;;;;;;;4916194;29;20071;-77
2024/04/03 00:09:25;;;;;;;4.32;1.58;;;;;;;;;;4913334;28;20116;-77
2024/04/03 00:12:09;;;;;;;2.58;1.13;;;;;;;;;;4913205;29;20078;-77
2024/04/03 00:14:53;;;;;;;4.28;1.63;;;;;;;;;;4914824;28;20058;-77
2024/04/03 00:17:38;;;;;;;4.63;1.70;;;;;;;;;;4916665;28;20036;-77
2024/04/03 00:20:23;;;;;;;3.95;1.45;;;;;;;;;;4920416;29;20518;-77
2024/04/03 00:23:09;;;;;;;5.93;1.80;;;;;;;;;;4929877;28;20028;-77
2024/04/03 00:25:55;;;;;;;2.55;1.30;;;;;;;;;;4989102;28;20031;-77
2024/04/03 00:28:40;;;;;;;3.58;1.30;;;;;;;;;;4917218;29;20479;-77
2024/04/03 00:31:26;;;;;;;5.28;1.40;;;;;;;;;;4927894;29;20407;-76
2024/04/03 00:34:11;;;;;;;6.80;1.90;;;;;;;;;;4912852;29;20039;-76
2024/04/03 00:36:56;;;;;;;4.47;1.45;;;;;;;;;;4915165;28;20039;-77
2024/04/03 00:39:42;;;;;;;6.32;2.05;;;;;;;;;;4932900;29;20031;-76
2024/04/03 00:42:27;;;;;;;5.82;1.48;;;;;;;;;;4924003;29;20390;-78
2024/04/03 00:45:12;;;;;;;3.63;1.35;;;;;;;;;;4918886;29;20034;-76
2024/04/03 00:47:57;;;;;;;2.22;1.20;;;;;;;;;;4921160;29;20067;-77
2024/04/03 00:50:43;;;;;;;3.60;1.70;;;;;;;;;;4918231;29;20038;-78
2024/04/03 00:53:28;;;;;;;3.90;2.15;;;;;;;;;;4915907;29;20031;-77
2024/04/03 00:56:14;;;;;;;4.80;1.80;;;;;;;;;;4932385;29;20046;-77
2024/04/03 00:58:59;;;;;;;6.82;1.70;;;;;;;;;;4914450;29;20237;-77
2024/04/03 01:01:44;;;;;;;2.92;1.20;;;;;;;;;;4920154;29;20123;-76
2024/04/03 01:04:30;;;;;;;7.72;2.17;;;;;;;;;;4922379;28;20450;-77
2024/04/03 01:07:15;;;;;;;4.82;1.65;;;;;;;;;;4915317;29;20071;-77
2024/04/03 01:10:00;;;;;;;2.45;1.38;;;;;;;;;;4931921;29;20281;-77
2024/04/03 01:12:45;;;;;;;4.55;1.48;;;;;;;;;;4916662;29;20047;-76
2024/04/03 01:15:31;;;;;;;7.38;1.80;;;;;;;;;;4926818;29;20078;-77
2024/04/03 01:18:16;;;;;;;3.40;1.48;;;;;;;;;;4918924;29;20035;-77
2024/04/03 01:21:01;;;;;;;3.97;1.70;;;;;;;;;;4928274;29;20051;-77
2024/04/03 01:23:52;;;;;;;4.95;2.47;;;;;;;;;;4927411;29;20618;-76
2024/04/03 01:26:37;;;;;;;4.38;1.20;;;;;;;;;;4920241;29;20036;-76
2024/04/03 01:29:22;;;;;;;2.85;1.20;;;;;;;;;;4930925;28;20093;-76
2024/04/03 01:32:08;;;;;;;5.03;1.75;;;;;;;;;;4927267;28;20024;-77
2024/04/03 01:34:53;;;;;;;5.30;1.60;;;;;;;;;;4924970;29;20023;-76
2024/04/03 01:37:38;;;;;;;5.78;1.38;;;;;;;;;;4914863;29;20086;-76
2024/04/03 01:40:24;;;;;;;3.95;2.00;;;;;;;;;;4917790;29;20054;-76
2024/04/03 01:43:09;;;;;;;5.25;1.70;;;;;;;;;;4917121;29;20031;-76
2024/04/03 01:45:57;;;;;;;3.45;1.48;;;;;;;;;;4927568;29;20079;-77
2024/04/03 01:48:43;;;;;;;3.70;1.20;;;;;;;;;;4914459;29;20039;-77
2024/04/03 01:51:28;;;;;;;3.28;1.25;;;;;;;;;;4917730;29;20057;-77
2024/04/03 01:54:13;;;;;;;3.10;1.08;;;;;;;;;;4911161;29;20085;-77
2024/04/03 01:56:58;;;;;;;2.03;1.20;;;;;;;;;;4918233;29;20024;-77
2024/04/03 01:59:44;;;;;;;6.88;1.63;;;;;;;;;;4922074;29;20468;-78
2024/04/03 02:02:29;;;;;;;4.22;1.25;;;;;;;;;;4916630;29;20064;-78
2024/04/03 02:05:14;;;;;;;3.63;1.42;;;;;;;;;;4917204;29;20028;-78
2024/04/03 02:07:59;;;;;;;3.85;1.42;;;;;;;;;;4986404;28;20525;-77
2024/04/03 02:10:45;;;;;;;3.80;1.40;;;;;;;;;;4932635;28;20086;-79
2024/04/03 02:13:30;;;;;;;4.95;1.55;;;;;;;;;;4925504;29;20040;-76
2024/04/03 02:16:15;;;;;;;3.30;1.40;;;;;;;;;;4922294;28;20063;-77
2024/04/03 02:19:00;;;;;;;5.72;1.50;;;;;;;;;;4917191;29;20111;-77
2024/04/03 02:21:46;;;;;;;3.17;1.42;;;;;;;;;;4933696;29;20056;-77
2024/04/03 02:24:31;;;;;;;7.75;2.00;;;;;;;;;;4922909;29;20111;-78
2024/04/03 02:27:16;;;;;;;8.10;1.45;;;;;;;;;;4923803;29;20339;-77
2024/04/03 02:30:03;;;;;;;3.80;1.70;;;;;;;;;;4923500;29;20166;-77
2024/04/03 02:32:48;;;;;;;3.45;1.52;;;;;;;;;;4917920;29;20032;-76
2024/04/03 02:35:33;;;;;;;5.07;1.75;;;;;;;;;;4918472;29;20107;-76
2024/04/03 02:38:18;;;;;;;1.98;1.02;;;;;;;;;;4917932;29;20035;-76
2024/04/03 02:41:04;;;;;;;3.60;1.10;;;;;;;;;;4921999;29;20023;-76
2024/04/03 02:43:49;;;;;;;5.72;1.60;;;;;;;;;;4926309;29;20031;-76
2024/04/03 02:46:34;;;;;;;3.10;1.17;;;;;;;;;;4932729;29;20067;-77
2024/04/03 02:49:20;;;;;;;4.07;1.42;;;;;;;;;;4922634;29;20062;-77
2024/04/03 02:52:05;;;;;;;7.80;2.72;;;;;;;;;;4937534;29;20508;-77
2024/04/03 02:54:50;;;;;;;4.40;1.38;;;;;;;;;;4924732;29;20107;-77
2024/04/03 02:57:35;;;;;;;2.17;1.60;;;;;;;;;;4919955;29;20123;-79
2024/04/03 03:00:21;;;;;;;5.10;2.17;;;;;;;;;;4937584;29;20044;-77
2024/04/03 03:03:06;;;;;;;2.88;1.33;;;;;;;;;;4913596;29;20107;-77
2024/04/03 03:05:52;;;;;;;6.45;1.50;;;;;;;;;;4915457;29;20055;-77
2024/04/03 03:08:37;;;;;;;5.85;1.63;;;;;;;;;;4922650;29;20047;-78
2024/04/03 03:11:22;;;;;;;3.45;1.70;;;;;;;;;;4921443;29;20134;-78
2024/04/03 03:14:08;;;;;;;10.10;3.63;;;;;;;;;;4918351;29;20052;-79
2024/04/03 03:16:53;;;;;;;7.78;1.95;;;;;;;;;;4921115;29;20040;-77
2024/04/03 03:19:39;;;;;;;7.95;2.38;;;;;;;;;;4916597;29;20021;-80
2024/04/03 03:22:24;;;;;;;4.05;1.45;;;;;;;;;;4918583;29;20027;-79
2024/04/03 03:25:09;;;;;;;3.83;1.63;;;;;;;;;;4984630;28;20115;-78
2024/04/03 03:27:54;;;;;;;5.22;2.05;;;;;;;;;;4988652;28;20055;-78
2024/04/03 03:30:40;;;;;;;4.05;1.08;;;;;;;;;;4917870;29;20029;-79
2024/04/03 03:33:25;;;;;;;3.40;1.67;;;;;;;;;;4918733;29;20479;-77
2024/04/03 03:36:10;;;;;;;3.97;1.88;;;;;;;;;;4915801;29;20031;-77
2024/04/03 03:38:56;;;;;;;4.70;1.85;;;;;;;;;;4919039;29;20036;-77
2024/04/03 03:41:41;;;;;;;5.20;1.60;;;;;;;;;;4915560;29;20039;-76
2024/04/03 03:44:26;;;;;;;5.25;1.75;;;;;;;;;;4932829;29;20497;-77
2024/04/03 03:47:12;;;;;;;4.05;1.50;;;;;;;;;;4914864;29;20043;-77
2024/04/03 03:53:02;;;;;;;3.45;1.80;;;;;;;;;;4922498;28;20031;-76
2024/04/03 03:55:47;;;;;;;4.90;1.98;;;;;;;;;;4919760;29;20083;-77
2024/04/03 03:58:33;;;;;;;3.28;2.15;;;;;;;;;;4927669;29;20056;-77
2024/04/03 04:01:18;;;;;;;7.47;1.70;;;;;;;;;;4925394;29;20143;-77
2024/04/03 04:04:04;;;;;;;3.53;1.60;;;;;;;;;;4915251;29;20028;-76
2024/04/03 04:06:49;;;;;;;4.07;1.52;;;;;;;;;;4936983;29;20032;-77
2024/04/03 04:09:34;;;;;;;1.92;1.30;;;;;;;;;;4921625;29;20035;-77
2024/04/03 04:12:20;;;;;;;5.35;1.83;;;;;;;;;;4911924;29;20119;-76
2024/04/03 04:15:05;;;;;;;4.30;1.40;;;;;;;;;;4925435;28;20047;-77
2024/04/03 04:17:51;;;;;;;1.48;1.25;;;;;;;;;;4921150;29;20040;-77
2024/04/03 04:20:36;;;;;;;5.55;2.35;;;;;;;;;;4923335;29;20040;-76
2024/04/03 04:23:22;;;;;;;1.63;1.40;;;;;;;;;;4919160;29;20035;-77
2024/04/03 04:26:07;;;;;;;3.28;1.45;;;;;;;;;;4921306;29;20410;-78
2024/04/03 04:28:52;;;;;;;2.50;1.30;;;;;;;;;;4925288;29;20062;-77
2024/04/03 04:31:38;;;;;;;4.45;1.63;;;;;;;;;;4920059;29;20378;-77
2024/04/03 04:34:23;;;;;;;4.80;1.52;;;;;;;;;;4916461;29;20063;-77
2024/04/03 04:37:09;;;;;;;4.63;1.50;;;;;;;;;;4906120;29;20307;-78
2024/04/03 04:39:54;;;;;;;6.03;1.70;;;;;;;;;;4912133;29;20028;-78
2024/04/03 04:42:39;;;;;;;6.00;2.17;;;;;;;;;;4920011;29;20406;-78
2024/04/03 04:45:24;;;;;;;9.85;1.95;;;;;;;;;;4917822;29;20214;-77
2024/04/03 04:48:09;;;;;;;5.20;1.77;;;;;;;;;;4921405;29;20024;-76
2024/04/03 04:50:56;;;;;;;4.10;1.98;;;;;;;;;;4921795;29;20070;-76
2024/04/03 04:53:41;;;;;;;3.33;1.60;;;;;;;;;;4933029;29;20035;-77
2024/04/03 04:56:26;;;;;;;4.85;1.80;;;;;;;;;;4919224;29;20110;-77
2024/04/03 04:59:13;;;;;;;7.93;1.90;;;;;;;;;;4925090;29;20039;-76
2024/04/03 05:01:58;;;;;;;4.40;1.90;;;;;;;;;;4913048;29;20244;-76
2024/04/03 05:04:43;;;;;;;5.75;2.42;;;;;;;;;;4924170;29;20038;-76
2024/04/03 05:07:29;;;;;;;4.22;1.50;;;;;;;;;;4907514;29;20040;-76
2024/04/03 05:10:14;;;;;;;5.10;1.92;;;;;;;;;;4927589;29;20024;-76
2024/04/03 05:12:59;;;;;;;3.75;1.52;;;;;;;;;;4915611;29;20121;-76
2024/04/03 05:15:45;;;;;;;3.72;1.45;;;;;;;;;;4922742;29;20529;-75
2024/04/03 05:18:30;;;;;;;4.60;1.77;;;;;;;;;;4929575;29;20028;-75
2024/04/03 05:21:17;;;;;;;8.13;2.08;;;;;;;;;;4928951;29;20597;-76
2024/04/03 05:24:02;;;;;;;4.88;1.83;;;;;;;;;;4924978;29;20185;-77
2024/04/03 05:26:47;;;;;;;5.35;1.92;;;;;;;;;;4985414;28;20392;-76
2024/04/03 05:29:32;;;;;;;3.45;1.77;;;;;;;;;;4912093;29;20486;-76
2024/04/03 05:32:18;;;;;;;3.28;1.60;;;;;;;;;;4909803;29;20092;-76
2024/04/03 05:35:03;;;;;;;5.22;1.50;;;;;;;;;;4919281;29;20394;-78
2024/04/03 05:37:48;;;;;;;4.90;1.58;;;;;;;;;;4928626;29;20039;-78
2024/04/03 05:40:34;;;;;;;7.07;1.42;;;;;;;;;;4937474;29;20024;-78
2024/04/03 05:43:19;;;;;;;4.40;1.83;;;;;;;;;;4922606;29;20055;-80
2024/04/03 05:46:05;;;;;;;8.70;3.75;;;;;;;;;;4923590;29;20019;-79
2024/04/03 05:48:50;;;;;;;10.93;4.68;;;;;;;;;;4921186;29;20032;-79
2024/04/03 05:51:35;;;;;;;9.45;2.80;;;;;;;;;;4920967;29;20110;-78
2024/04/03 05:54:21;;;;;;;8.25;2.78;;;;;;;;;;4919057;29;20032;-79
2024/04/03 05:57:06;;;;;;;6.28;2.47;;;;;;;;;;4920234;29;20050;-78
2024/04/03 05:59:51;;;;;;;3.95;1.83;;;;;;;;;;4923254;29;20094;-79
2024/04/03 06:02:37;;;;;;;8.02;2.50;;;;;;;;;;4916584;29;20414;-80
2024/04/03 06:05:22;;;;;;;4.72;1.90;;;;;;;;;;4917552;29;20110;-79
2024/04/03 06:08:08;;;;;;;4.00;1.83;;;;;;;;;;4915819;28;20471;-79
2024/04/03 06:10:53;;;;;;;2.90;1.60;;;;;;;;;;4921868;29;20019;-79
2024/04/03 06:13:39;;;;;;;5.68;1.60;;;;;;;;;;4931202;28;20044;-78
2024/04/03 06:16:24;;;;;;;4.47;1.88;;;;;;;;;;4914827;28;20048;-78
2024/04/03 06:19:12;;;;;;;1.95;1.40;;;;;;;;;;4920784;28;20582;-78
2024/04/03 06:21:57;;;;;;;4.75;1.98;;;;;;;;;;4924206;28;20036;-78
2024/04/03 06:24:43;;;;;;;3.10;1.33;;;;;;;;;;4947928;28;20507;-78
2024/04/03 06:27:28;;;;;;;4.63;1.50;;;;;;;;;;4919390;29;20063;-77
2024/04/03 06:30:14;;;;;;;3.17;1.65;;;;;;;;;;4919615;29;20039;-76
2024/04/03 06:32:59;;;;;;;3.92;1.42;;;;;;;;;;4921042;29;20046;-76
2024/04/03 06:35:44;;;;;;;3.28;1.65;;;;;;;;;;4918767;29;20024;-77
2024/04/03 06:38:29;;;;;;;2.97;1.77;;;;;;;;;;4924897;28;20044;-77
2024/04/03 06:41:14;;;;;;;3.17;1.63;;;;;;;;;;4921129;28;20032;-77
2024/04/03 06:44:19;;;;;;;;;;;;;;;;;;;;;
2024/04/03 06:47:08;;;;;;;2.25;1.13;;;;;;;;;;4920107;29;20057;-79
2024/04/03 06:49:54;;;;;;;2.47;1.13;;;;;;;;;;4920879;29;20028;-77
2024/04/03 06:52:39;;;;;;;3.40;1.27;;;;;;;;;;4985747;28;20027;-77
2024/04/03 06:55:24;;;;;;;4.75;1.35;;;;;;;;;;4919916;29;20080;-75
2024/04/03 06:58:09;;;;;;;4.18;1.23;;;;;;;;;;4922131;29;20114;-78
2024/04/03 07:00:55;;;;;;;5.32;2.08;;;;;;;;;;4922629;29;20031;-77
2024/04/03 07:03:40;;;;;;;4.18;1.67;;;;;;;;;;4922820;29;20023;-76
2024/04/03 07:06:25;;;;;;;1.85;1.30;;;;;;;;;;4925585;29;20440;-77
2024/04/03 07:09:10;;;;;;;4.28;1.30;;;;;;;;;;4926610;29;20382;-76
2024/04/03 07:11:56;;;;;;;3.63;1.48;;;;;;;;;;4917347;28;20047;-77
2024/04/03 07:14:41;;;;;;;1.40;1.00;;;;;;;;;;4922966;29;20023;-77
2024/04/03 07:17:26;;;;;;;5.32;1.55;;;;;;;;;;4925405;29;20075;-78
2024/04/03 07:20:11;;;;;;;2.22;1.35;;;;;;;;;;4918630;29;20031;-77
2024/04/03 07:22:57;;;;;;;3.17;1.40;;;;;;;;;;4988595;28;20074;-78
2024/04/03 07:25:43;;;;;;;1.88;1.15;;;;;;;;;;4923513;29;20023;-78
2024/04/03 07:28:29;;;;;;;7.55;2.00;;;;;;;;;;4918991;28;20047;-78
2024/04/03 07:31:14;;;;;;;3.20;1.30;;;;;;;;;;4920686;29;20038;-79
2024/04/03 07:34:00;;;;;;;1.70;1.20;;;;;;;;;;4926025;28;20062;-78
2024/04/03 07:36:45;;;;;;;2.80;1.27;;;;;;;;;;4918304;29;20034;-78
2024/04/03 07:39:30;;;;;;;2.28;1.23;;;;;;;;;;4912193;28;20019;-78
2024/04/03 07:42:16;;;;;;;2.30;1.23;;;;;;;;;;4917456;28;20069;-78
2024/04/03 07:45:01;;;;;;;2.78;1.45;;;;;;;;;;4921136;29;20028;-78
2024/04/03 07:47:49;;;;;;;7.13;1.60;;;;;;;;;;4916679;29;20063;-78
2024/04/03 07:50:35;;;;;;;4.68;1.63;;;;;;;;;;4922619;29;20067;-78
2024/04/03 07:53:20;;;;;;;5.72;1.88;;;;;;;;;;4924571;29;20031;-78
2024/04/03 07:56:05;;;;;;;3.70;1.85;;;;;;;;;;4912210;29;20032;-78
2024/04/03 07:58:51;;;;;;;2.50;1.80;;;;;;;;;;4914857;29;20030;-80
2024/04/03 08:01:36;;;;;;;2.88;1.35;;;;;;;;;;4921083;28;20028;-78
2024/04/03 08:04:23;;;;;;;6.03;1.85;;;;;;;;;;4923830;29;20112;-80
2024/04/03 08:07:09;;;;;;;5.15;1.50;;;;;;;;;;4929172;28;20483;-79
2024/04/03 08:09:54;;;;;;;5.30;1.60;;;;;;;;;;4925966;28;20015;-79
2024/04/03 08:12:40;;;;;;;3.28;1.63;;;;;;;;;;4920539;29;20032;-78
2024/04/03 08:15:25;;;;;;;2.67;1.25;;;;;;;;;;4921016;29;20170;-78
2024/04/03 08:18:11;;;;;;;2.63;1.30;;;;;;;;;;4922919;29;20047;-79
2024/04/03 08:21:03;;;;;;;6.03;1.52;;;;;;;;;;4916334;28;20052;-78
2024/04/03 08:23:48;;;;;;;2.65;1.38;;;;;;;;;;4938501;28;20111;-78
2024/04/03 08:26:33;;;;;;;6.05;1.52;;;;;;;;;;4924362;29;20035;-78
2024/04/03 08:29:19;;;;;;;1.80;1.30;;;;;;;;;;4921197;29;20110;-79
2024/04/03 08:32:14;;;;;;;10.18;2.13;;;;;;;;;;4921704;28;20514;-78
2024/04/03 08:35:00;;;;;;;2.47;1.45;;;;;;;;;;4924445;29;20028;-79
2024/04/03 08:37:45;;;;;;;3.53;1.33;;;;;;;;;;4924782;29;20036;-78
2024/04/03 08:40:31;;;;;;;2.90;1.38;;;;;;;;;;4934574;28;20031;-76
2024/04/03 08:43:16;;;;;;;2.70;1.20;;;;;;;;;;4916862;29;20027;-78
2024/04/03 08:46:02;;;;;;;3.60;1.05;;;;;;;;;;4915676;28;20437;-78
2024/04/03 08:48:47;;;;;;;2.92;1.23;;;;;;;;;;4925619;29;20102;-78
2024/04/03 08:51:32;;;;;;;1.50;1.00;;;;;;;;;;4941858;28;20028;-78
2024/04/03 08:54:18;;;;;;;4.43;1.38;;;;;;;;;;4920612;29;20086;-78
2024/04/03 08:57:05;;;;;;;3.65;1.27;;;;;;;;;;4922858;29;20059;-78
2024/04/03 08:59:50;;;;;;;2.55;1.35;;;;;;;;;;4917234;29;20039;-78
2024/04/03 09:02:36;;;;;;;3.53;1.30;;;;;;;;;;4911789;29;20042;-78
2024/04/03 09:05:21;;;;;;;2.92;1.30;;;;;;;;;;4931591;28;20039;-80
2024/04/03 09:08:07;;;;;;;4.97;1.13;;;;;;;;;;4921152;29;20020;-79
2024/04/03 09:10:59;;;;;;;2.50;1.38;;;;;;;;;;4924975;29;20648;-78
2024/04/03 09:13:52;;;;;;;1.65;1.00;;;;;;;;;;4925545;28;20127;-78
2024/04/03 09:16:37;;;;;;;2.75;1.20;;;;;;;;;;4915930;29;20055;-78
2024/04/03 09:19:23;;;;;;;2.45;1.17;;;;;;;;;;4984928;28;20066;-79
2024/04/03 09:22:08;;;;;;;2.00;1.08;;;;;;;;;;4987885;28;20039;-80
2024/04/03 09:24:53;;;;;;;2.55;1.20;;;;;;;;;;4985985;28;20089;-78
2024/04/03 09:27:38;;;;;;;2.53;1.17;;;;;;;;;;4931402;29;20024;-81
2024/04/03 09:30:24;;;;;;;2.75;1.13;;;;;;;;;;4912832;29;20032;-79
2024/04/03 09:33:09;;;;;;;2.17;1.35;;;;;;;;;;4914562;28;20036;-79
2024/04/03 09:35:55;;;;;;;4.20;1.45;;;;;;;;;;4920583;29;20036;-78
2024/04/03 09:38:40;;;;;;;1.38;1.00;;;;;;;;;;4913862;28;20031;-78
2024/04/03 09:41:29;;;;;;;1.95;1.02;;;;;;;;;;4929791;28;20079;-77
2024/04/03 09:44:15;;;;;;;1.33;0.90;;;;;;;;;;4918113;29;20031;-78
2024/04/03 09:47:05;;;;;;;1.85;1.00;;;;;;;;;;4918706;29;20046;-79
2024/04/03 09:49:51;;;;;;;3.42;1.02;;;;;;;;;;4918039;29;20025;-78
2024/04/03 09:52:36;;;;;;;3.38;1.02;;;;;;;;;;4919543;29;20040;-79
2024/04/03 09:55:24;;;;;;;1.65;1.00;;;;;;;;;;4918626;29;20111;-78
2024/04/03 09:58:13;;;;;;;3.22;1.25;;;;;;;;;;4914569;29;20035;-78
2024/04/03 10:00:58;;;;;;;5.22;1.50;;;;;;;;;;4987661;28;20093;-78
2024/04/03 10:03:47;;;;;;;3.70;1.60;;;;;;;;;;4927484;29;20119;-77
2024/04/03 10:06:36;;;;;;;0.80;0.70;;;;;;;;;;4918920;28;20046;-78
2024/04/03 10:09:21;;;;;;;1.95;1.10;;;;;;;;;;4918982;29;20070;-79
2024/04/03 10:12:14;;;;;;;1.88;1.00;;;;;;;;;;4917736;29;20093;-78
2024/04/03 10:15:00;;;;;;;1.38;0.98;;;;;;;;;;4927497;28;20039;-78
2024/04/03 10:17:46;;;;;;;3.90;0.98;;;;;;;;;;4915149;29;20030;-79
2024/04/03 10:20:35;;;;;;;5.07;1.15;;;;;;;;;;4920063;28;20071;-79
2024/04/03 10:23:21;;;;;;;0.70;0.70;;;;;;;;;;4919030;29;20047;-78
2024/04/03 10:26:07;;;;;;;2.10;0.93;;;;;;;;;;4929315;28;20040;-77
2024/04/03 10:28:52;;;;;;;2.08;1.02;;;;;;;;;;4914163;28;20039;-78
2024/04/03 10:31:38;;;;;;;1.13;0.75;;;;;;;;;;4920363;29;20028;-78
2024/04/03 10:34:23;;;;;;;1.50;0.90;;;;;;;;;;4923852;29;20030;-78
2024/04/03 10:37:10;;;;;;;1.08;0.80;;;;;;;;;;4922659;28;20032;-78
2024/04/03 10:39:55;;;;;;;0.93;0.85;;;;;;;;;;4918545;29;20106;-80
2024/04/03 10:42:41;;;;;;;2.22;0.80;;;;;;;;;;4923038;29;20035;-79
2024/04/03 10:45:27;;;;;;;1.67;0.80;;;;;;;;;;4920007;28;20028;-78
2024/04/03 10:48:12;;;;;;;1.10;0.80;;;;;;;;;;4918707;29;20051;-78
2024/04/03 10:50:57;;;;;;;5.03;0.80;;;;;;;;;;4948556;28;20031;-78
2024/04/03 10:53:44;;;;;;;0.88;0.80;;;;;;;;;;4943972;28;20131;-79
2024/04/03 10:56:29;;;;;;;2.05;1.00;;;;;;;;;;4919400;29;20039;-81
2024/04/03 10:59:15;;;;;;;4.22;1.00;;;;;;;;;;4918434;29;20438;-81
2024/04/03 11:02:00;;;;;;;3.95;1.42;;;;;;;;;;4938638;29;20055;-81
2024/04/03 11:04:45;;;;;;;1.65;0.77;;;;;;;;;;4919753;29;20031;-81
2024/04/03 11:07:30;;;;;;;2.45;1.30;;;;;;;;;;4920654;29;20398;-80
2024/04/03 11:10:16;;;;;;;3.72;1.77;;;;;;;;;;4927742;29;20039;-78
2024/04/03 11:13:02;;;;;;;2.97;1.42;;;;;;;;;;4927567;29;20063;-80
2024/04/03 11:15:52;;;;;;;6.93;2.78;;;;;;;;;;4925288;28;20055;-79
2024/04/03 11:18:37;;;;;;;;;;;;;;;;;;4919167;29;20028;-79
2024/04/03 11:21:23;;;;;;;9.77;3.03;;;;;;;;;;4922446;29;20372;-80
2024/04/03 11:24:09;;;;;;;15.48;3.40;;;;;;;;;;4919956;29;20043;-77
2024/04/03 11:26:54;;;;;;;6.85;2.30;;;;;;;;;;4935691;28;20024;-80
2024/04/03 11:29:41;;;;;;;3.38;1.85;;;;;;;;;;4921698;29;20032;-80
2024/04/03 11:32:27;;;;;;;5.35;1.52;;;;;;;;;;4921524;29;20036;-79
2024/04/03 11:35:12;;;;;;;2.88;1.00;;;;;;;;;;4925796;29;20028;-75
2024/04/03 11:38:00;;;;;;;0.82;0.82;;;;;;;;;;4933210;29;20115;-75
2024/04/03 11:40:46;;;;;;;2.80;1.10;;;;;;;;;;4925007;29;20417;-75
2024/04/03 11:43:31;;;;;;;1.10;1.00;;;;;;;;;;4935746;29;20437;-75
2024/04/03 11:46:16;;;;;;;2.58;0.80;;;;;;;;;;4917012;28;20368;-76
2024/04/03 11:49:03;;;;;;;1.65;0.70;;;;;;;;;;4992414;28;20082;-77
2024/04/03 11:51:48;;;;;;;6.50;0.90;;;;;;;;;;4920857;29;20020;-76
2024/04/03 11:54:34;;;;;;;1.98;0.80;;;;;;;;;;4923260;29;20074;-76
2024/04/03 11:57:19;;;;;;;1.55;0.90;;;;;;;;;;4917065;28;20086;-76
2024/04/03 12:00:10;;;;;;;1.65;0.90;;;;;;;;;;4918635;29;20024;-76
2024/04/03 12:02:55;;;;;;;3.67;0.90;;;;;;;;;;4930444;29;20047;-76
2024/04/03 12:05:40;;;;;;;0.70;0.70;;;;;;;;;;4921275;28;20024;-77
2024/04/03 12:08:25;;;;;;;1.23;0.70;;;;;;;;;;4918039;28;20067;-77
2024/04/03 12:11:11;;;;;;;1.17;0.75;;;;;;;;;;4908410;29;20031;-77
2024/04/03 12:13:56;;;;;;;2.25;0.98;;;;;;;;;;4926115;28;20039;-78
2024/04/03 12:16:41;;;;;;;0.88;0.70;;;;;;;;;;4914152;29;20218;-78
2024/04/03 12:19:29;;;;;;;2.05;0.60;;;;;;;;;;4922945;29;20122;-77
2024/04/03 12:22:14;;;;;;;0.60;0.60;;;;;;;;;;4993059;28;20130;-76
2024/04/03 12:24:59;;;;;;;1.10;0.82;;;;;;;;;;4987612;28;20016;-78
2024/04/03 12:27:44;;;;;;;0.88;0.88;;;;;;;;;;4917641;29;20023;-77
2024/04/03 12:30:30;;;;;;;1.13;0.80;;;;;;;;;;4987246;28;20019;-77
2024/04/03 12:33:15;;;;;;;0.80;0.80;;;;;;;;;;4919002;29;20135;-77
2024/04/03 12:36:00;;;;;;;1.15;0.73;;;;;;;;;;4920050;29;20825;-76
2024/04/03 12:38:46;;;;;;;1.38;0.80;;;;;;;;;;4992627;28;20094;-77
2024/04/03 12:41:32;;;;;;;1.52;0.70;;;;;;;;;;4927134;28;20032;-77
2024/04/03 12:44:17;;;;;;;2.67;0.90;;;;;;;;;;4921477;29;20051;-77
2024/04/03 12:47:06;;;;;;;1.17;0.80;;;;;;;;;;4933258;28;20034;-77
2024/04/03 12:49:52;;;;;;;1.42;0.90;;;;;;;;;;4914972;29;20107;-77
2024/04/03 12:52:37;;;;;;;0.77;0.77;;;;;;;;;;4925147;28;20039;-77
2024/04/03 12:55:22;;;;;;;3.05;0.73;;;;;;;;;;4921238;29;20036;-77
2024/04/03 12:58:07;;;;;;;2.08;0.80;;;;;;;;;;4917873;29;20086;-77
2024/04/03 13:00:52;;;;;;;1.05;0.98;;;;;;;;;;4922574;28;20052;-77
2024/04/03 13:03:38;;;;;;;0.60;0.60;;;;;;;;;;4915806;29;20038;-79
2024/04/03 13:06:30;;;;;;;0.65;0.60;;;;;;;;;;4922556;29;20030;-78
2024/04/03 13:09:15;;;;;;;1.55;0.80;;;;;;;;;;4919537;29;20028;-78
2024/04/03 13:12:05;;;;;;;0.95;0.85;;;;;;;;;;4917714;29;20579;-78
2024/04/03 13:14:50;;;;;;;0.77;0.70;;;;;;;;;;4918557;29;20035;-78
2024/04/03 13:17:35;;;;;;;0.70;0.60;;;;;;;;;;4908119;29;20111;-78
2024/04/03 13:20:20;;;;;;;1.02;0.90;;;;;;;;;;4919142;29;20023;-77
2024/04/03 13:23:06;;;;;;;0.60;0.60;;;;;;;;;;4920516;28;20034;-77
2024/04/03 13:25:52;;;;;;;0.80;0.80;;;;;;;;;;4921516;29;20131;-77
2024/04/03 13:28:37;;;;;;;0.60;0.60;;;;;;;;;;4914319;29;20383;-77
2024/04/03 13:31:24;;;;;;;0.60;0.60;;;;;;;;;;4917300;28;20105;-78
2024/04/03 13:34:10;;;;;;;0.80;0.80;;;;;;;;;;4920003;29;20147;-77
2024/04/03 13:36:55;;;;;;;1.55;0.73;;;;;;;;;;4915663;29;20031;-77
2024/04/03 13:39:40;;;;;;;0.80;0.80;;;;;;;;;;4921919;29;20031;-76
2024/04/03 13:42:27;;;;;;;2.08;1.35;;;;;;;;;;4918633;29;20035;-77
2024/04/03 13:45:12;;;;;;;2.58;0.77;;;;;;;;;;4913536;29;20070;-76
2024/04/03 13:47:57;;;;;;;0.70;0.70;;;;;;;;;;4921274;28;20174;-76
2024/04/03 13:50:46;;;;;;;0.98;0.80;;;;;;;;;;4916272;29;20044;-77
2024/04/03 13:53:32;;;;;;;1.43;0.90;;;;;;;;;;4919190;28;20028;-76
2024/04/03 13:56:18;;;;;;;1.00;0.90;;;;;;;;;;4917683;29;20355;-76
2024/04/03 13:59:03;;;;;;;0.73;0.73;;;;;;;;;;4932191;29;20089;-77
2024/04/03 14:01:49;;;;;;;1.00;0.80;;;;;;;;;;4918912;29;20028;-76
2024/04/03 14:04:34;;;;;;;2.13;0.90;;;;;;;;;;4917193;29;20035;-77
2024/04/03 14:07:19;;;;;;;1.25;1.08;;;;;;;;;;4922081;29;20047;-76
2024/04/03 14:10:04;;;;;;;1.02;0.90;;;;;;;;;;4933097;28;20055;-76
2024/04/03 14:12:51;;;;;;;1.45;1.05;;;;;;;;;;4919598;29;20122;-76
2024/04/03 14:15:36;;;;;;;2.15;1.02;;;;;;;;;;4929517;29;20063;-77
2024/04/03 14:18:22;;;;;;;2.25;0.90;;;;;;;;;;4919532;29;20386;-76
2024/04/03 14:21:08;;;;;;;3.50;1.13;;;;;;;;;;4939558;28;20032;-76
2024/04/03 14:23:54;;;;;;;1.27;0.90;;;;;;;;;;4924992;28;20032;-75
2024/04/03 14:26:39;;;;;;;1.08;0.90;;;;;;;;;;4921048;28;20095;-77
2024/04/03 14:29:24;;;;;;;1.00;0.90;;;;;;;;;;4923615;29;20038;-77
2024/04/03 14:32:10;;;;;;;2.00;0.82;;;;;;;;;;4926901;29;20042;-78
2024/04/03 14:34:55;;;;;;;1.20;1.00;;;;;;;;;;4924499;29;20066;-77
2024/04/03 14:37:40;;;;;;;1.77;0.90;;;;;;;;;;4918264;29;20108;-77
2024/04/03 14:40:25;;;;;;;1.95;1.00;;;;;;;;;;4933849;28;20040;-77
2024/04/03 14:43:10;;;;;;;1.60;1.13;;;;;;;;;;4920405;29;20059;-78
2024/04/03 14:45:56;;;;;;;1.23;1.00;;;;;;;;;;4916929;28;20093;-77
2024/04/03 14:48:42;;;;;;;3.78;0.93;;;;;;;;;;4919384;28;20131;-77
2024/04/03 14:51:27;;;;;;;0.88;0.80;;;;;;;;;;4917210;28;20521;-75
2024/04/03 14:54:12;;;;;;;1.25;0.85;;;;;;;;;;4915340;29;20040;-75
2024/04/03 14:56:57;;;;;;;1.27;1.17;;;;;;;;;;4923625;29;20031;-77
2024/04/03 14:59:43;;;;;;;1.88;1.02;;;;;;;;;;4921514;28;20119;-75
2024/04/03 15:02:29;;;;;;;1.05;0.90;;;;;;;;;;4933116;28;20519;-75
2024/04/03 15:05:21;;;;;;;2.15;1.40;;;;;;;;;;4920003;29;20038;-74
2024/04/03 15:08:06;;;;;;;2.03;1.08;;;;;;;;;;4920880;28;20028;-82
2024/04/03 15:10:51;;;;;;;1.33;1.10;;;;;;;;;;4929291;29;20055;-81
2024/04/03 15:13:37;;;;;;;1.23;1.10;;;;;;;;;;4921861;29;20090;-80
2024/04/03 15:16:22;;;;;;;1.70;1.00;;;;;;;;;;4925614;29;20060;-80
2024/04/03 15:19:09;;;;;;;1.85;0.70;;;;;;;;;;4924556;29;20038;-81
2024/04/03 15:21:54;;;;;;;2.53;1.15;;;;;;;;;;4925545;29;20494;-77
2024/04/03 15:24:39;;;;;;;1.52;1.05;;;;;;;;;;4924705;29;20540;-79
2024/04/03 15:27:26;;;;;;;2.40;1.00;;;;;;;;;;4919697;29;20035;-83
2024/04/03 15:30:11;;;;;;;1.30;1.15;;;;;;;;;;4938681;29;20043;-85
2024/04/03 15:32:57;;;;;;;1.10;0.70;;;;;;;;;;4924570;29;20530;-78
2024/04/03 15:35:43;;;;;;;2.03;1.13;;;;;;;;;;4927167;28;20429;-79
2024/04/03 15:38:28;;;;;;;1.83;1.08;;;;;;;;;;4920760;29;20061;-79
2024/04/03 15:41:14;;;;;;;5.03;1.00;;;;;;;;;;4914374;29;20043;-76
2024/04/03 15:44:21;;;;;;;1.50;0.70;;;;;;;;;;4992846;28;20027;-78
2024/04/03 15:47:07;;;;;;;2.20;0.90;;;;;;;;;;4925445;28;20471;-77
2024/04/03 15:49:53;;;;;;;3.13;1.30;;;;;;;;;;4929213;28;20086;-77
2024/04/03 15:52:40;;;;;;;2.75;0.90;;;;;;;;;;4924745;29;20119;-75
2024/04/03 15:55:25;;;;;;;1.85;1.00;;;;;;;;;;4913292;29;20060;-76
2024/04/03 15:58:10;;;;;;;3.15;0.98;;;;;;;;;;4933137;29;20035;-76
2024/04/03 16:00:55;;;;;;;1.63;0.90;;;;;;;;;;4924016;29;20022;-75
2024/04/03 16:03:41;;;;;;;1.02;0.80;;;;;;;;;;4922298;29;20030;-78
2024/04/03 16:06:27;;;;;;;2.38;1.02;;;;;;;;;;4917901;28;20039;-76
2024/04/03 16:09:15;;;;;;;2.03;1.30;;;;;;;;;;4917437;29;20086;-76
2024/04/03 16:12:01;;;;;;;2.22;0.88;;;;;;;;;;4987033;28;20024;-77
2024/04/03 16:14:46;;;;;;;2.00;0.82;;;;;;;;;;4979229;28;20043;-76
2024/04/03 16:17:31;;;;;;;3.42;1.50;;;;;;;;;;4938916;29;20134;-77
2024/04/03 16:20:17;;;;;;;1.33;0.90;;;;;;;;;;4935878;28;20046;-77
2024/04/03 16:23:02;;;;;;;1.48;1.00;;;;;;;;;;4924869;29;20077;-76
2024/04/03 16:25:47;;;;;;;1.27;1.15;;;;;;;;;;4923441;29;20020;-76
2024/04/03 16:28:34;;;;;;;3.58;1.08;;;;;;;;;;4928735;28;20012;-77
2024/04/03 16:31:19;;;;;;;1.80;0.90;;;;;;;;;;4916705;29;20090;-76
2024/04/03 16:34:04;;;;;;;2.38;1.00;;;;;;;;;;4920048;29;20616;-76
2024/04/03 16:36:50;;;;;;;3.33;1.98;;;;;;;;;;4923737;29;20439;-78